Terminal Aerodrome Forecast
Issued by NWS

Home | Current Version | Previous Version | Text Only | Print | Product List | Glossary On
Versions: 1 2 3 4 5 6 7 8 9 10 11 12 13 14 15 16 17 18 19 20 21 22
329
FTUS46 KSEW 270617 AAA
TAFBFI
TAF AMD
KBFI 270617Z 2706/2806 15009KT P6SM VCSH SCT009 SCT018 OVC035
      TEMPO 2706/2709 4SM -SHRA BR BKN009 BKN018 OVC035
     FM270900 17007KT P6SM VCSH OVC018
     FM271800 17009KT P6SM -SHRA BKN028 OVC050
     FM272100 19010KT P6SM -SHRA BKN035 OVC050
     FM280300 16005KT P6SM SCT035 BKN050=

USA.gov is the U.S. government's official web portal to all federal, state and local government web resources and services.